Pagrindinis puslapis
METAR-TAF:

METAR-TAF

Oro uostai :

Oruras, Bolivija

platuma: 17-58S, ilguma: 067-04W, Aukštis: 3072 m

Dabartinis oras

Ataskaita buvo paskelbta 7 valandos ir 58 minutes, ne 14:00 UTC
Vėjas 4 kt iš Pietų
Temperatūra 15°C
Drėgmė 39%
Slėgis 1036 hPa
Matomumas 10 km arba daugiau
Mažai debesys ne aukštis 2000 ft
Išsisklaidę debesys ne aukštis 20000 ft

METAR: SLOR 281400Z 18004KT 9999 FEW020 SCT200 15/01 Q1036

Laikas: 17:58 (21:58 UTC)


TAF: trūkstamas

Orai ataskaitas ir orų prognozės (METAR, TAF).

turimą stotys yra geltonos ir raudonos taškus žemėlapyje.

Perkelti pele per norėdami pamatyti stoties vardą.

Tada spustelėkite, norėdami matyti oro stebėjimo ir prognozės.

Norėdami pakeisti žemėlapį: spustelėkite ant žalios mygtukų su juodo kryžiaus žemyn,; žalią mygtuką su brūkšneliu, jei norite nutolinti; arba žalių rodyklių gretimoms žemėlapius.


METAR-TAF: